createdAt,value
2023-05-15T00:00:40.325Z,32.35
2023-05-15T00:03:08.256Z,32.38
2023-05-15T00:05:36.129Z,32.88
2023-05-15T00:08:03.861Z,33.42
2023-05-15T00:10:31.591Z,32.50
2023-05-15T00:12:59.332Z,32.85
2023-05-15T00:15:28.528Z,30.67
2023-05-15T00:17:56.580Z,31.05
2023-05-15T00:20:24.448Z,29.52
2023-05-15T00:22:52.291Z,29.92
2023-05-15T00:25:20.225Z,30.63
2023-05-15T00:27:48.019Z,28.40
2023-05-15T00:30:16.482Z,29.40
2023-05-15T00:32:45.646Z,25.00
2023-05-15T00:35:13.518Z,28.05
2023-05-15T00:37:41.758Z,27.27
2023-05-15T00:40:13.411Z,29.40
2023-05-15T00:42:41.933Z,30.38
2023-05-15T00:45:11.981Z,27.77
2023-05-15T00:47:41.947Z,28.52
2023-05-15T00:50:12.263Z,29.60
2023-05-15T00:52:40.364Z,28.83
2023-05-15T00:55:08.880Z,29.02
2023-05-15T00:57:36.924Z,29.30
2023-05-15T01:00:10.426Z,29.15
2023-05-15T01:02:38.484Z,28.55
2023-05-15T01:05:09.064Z,31.48
2023-05-15T01:07:44.688Z,30.45
2023-05-15T01:10:13.199Z,29.63
2023-05-15T01:12:42.999Z,31.83
2023-05-15T01:15:11.753Z,33.22
2023-05-15T01:17:39.653Z,32.92
2023-05-15T01:20:12.022Z,32.22
2023-05-15T01:22:52.784Z,32.35
2023-05-15T01:25:55.688Z,32.40
2023-05-15T01:28:31.808Z,31.50
2023-05-15T01:31:03.972Z,30.75
2023-05-15T01:33:39.354Z,30.42
2023-05-15T01:36:14.564Z,31.80
2023-05-15T01:38:47.310Z,32.67
2023-05-15T01:41:22.284Z,33.92
2023-05-15T01:43:57.795Z,34.58
2023-05-15T01:46:31.090Z,32.85
2023-05-15T01:51:31.464Z,33.25
2023-05-15T01:54:00.585Z,31.65
2023-05-15T01:56:28.492Z,34.00
2023-05-15T01:59:00.069Z,32.08
2023-05-15T02:01:30.804Z,29.92
2023-05-15T02:03:58.833Z,31.50
2023-05-15T02:06:27.059Z,31.50
2023-05-15T02:08:58.264Z,32.70
2023-05-15T02:11:26.062Z,31.67
2023-05-15T02:13:55.995Z,31.00
2023-05-15T02:16:25.188Z,31.17
2023-05-15T02:18:53.310Z,30.15
2023-05-15T02:21:21.146Z,28.77
2023-05-15T02:23:49.128Z,30.25
2023-05-15T02:26:31.284Z,31.40
2023-05-15T02:29:11.158Z,29.70
2023-05-15T02:31:48.617Z,30.00
2023-05-15T02:34:23.631Z,29.98
2023-05-15T02:36:54.263Z,30.27
2023-05-15T02:39:25.106Z,30.52
2023-05-15T02:41:54.745Z,29.40
2023-05-15T02:44:23.800Z,29.80
2023-05-15T02:46:54.952Z,30.05
2023-05-15T02:49:24.169Z,29.42
2023-05-15T02:51:52.059Z,29.75
2023-05-15T02:54:20.268Z,32.00
2023-05-15T02:56:48.204Z,33.67
2023-05-15T02:59:19.788Z,32.60
2023-05-15T03:01:47.981Z,33.63
2023-05-15T03:04:17.370Z,30.10
2023-05-15T03:06:45.285Z,31.38
2023-05-15T03:09:13.243Z,30.13
2023-05-15T03:11:41.009Z,30.80
2023-05-15T03:14:08.952Z,30.38
2023-05-15T03:16:38.969Z,27.67
2023-05-15T03:19:07.501Z,27.90
2023-05-15T03:21:36.773Z,26.80
2023-05-15T03:24:04.855Z,29.33
2023-05-15T03:26:32.655Z,27.27
2023-05-15T03:29:02.065Z,28.13
2023-05-15T03:31:30.191Z,27.42
2023-05-15T03:33:58.096Z,25.25
2023-05-15T03:36:26.000Z,24.92
2023-05-15T03:38:55.384Z,21.95
2023-05-15T03:41:23.293Z,22.15
2023-05-15T03:43:51.147Z,21.98
2023-05-15T03:46:20.225Z,20.80
2023-05-15T03:48:48.162Z,18.92
2023-05-15T03:51:16.053Z,19.85
2023-05-15T03:53:43.893Z,19.35
2023-05-15T03:56:13.183Z,20.83
2023-05-15T03:58:42.131Z,21.45
2023-05-15T04:01:09.947Z,21.48
2023-05-15T04:03:37.747Z,20.48
2023-05-15T04:06:06.416Z,20.33
2023-05-15T04:08:34.176Z,19.85
2023-05-15T04:11:02.015Z,20.48
2023-05-15T04:13:31.175Z,19.40
2023-05-15T04:15:59.706Z,19.45
2023-05-15T04:18:27.435Z,18.73
2023-05-15T04:20:55.441Z,19.17
2023-05-15T04:23:23.353Z,18.33
2023-05-15T04:25:51.457Z,19.65
2023-05-15T04:28:21.028Z,17.23
2023-05-15T04:30:50.633Z,17.38
2023-05-15T04:33:18.332Z,18.42
2023-05-15T04:35:46.143Z,19.10
2023-05-15T04:38:13.821Z,17.85
2023-05-15T04:40:41.631Z,15.27
2023-05-15T04:43:09.662Z,16.65
2023-05-15T04:45:37.499Z,14.25
2023-05-15T04:48:07.169Z,13.27
2023-05-15T04:50:34.972Z,12.93
2023-05-15T04:53:03.480Z,13.35
2023-05-15T04:55:33.052Z,13.43
2023-05-15T04:58:01.752Z,12.60
2023-05-15T05:00:29.587Z,13.57
2023-05-15T05:02:57.595Z,14.65
2023-05-15T05:05:27.038Z,13.70
2023-05-15T05:07:55.016Z,13.95
2023-05-15T05:10:23.061Z,14.73
2023-05-15T05:12:50.821Z,13.93
2023-05-15T05:15:18.927Z,15.15
2023-05-15T05:17:47.086Z,13.88
2023-05-15T05:20:14.886Z,15.13
2023-05-15T05:22:44.078Z,16.20
2023-05-15T05:25:11.919Z,16.27
2023-05-15T05:27:39.807Z,16.70
2023-05-15T05:30:08.852Z,16.15
2023-05-15T05:32:36.866Z,17.83
2023-05-15T05:35:06.592Z,15.82
2023-05-15T05:37:34.457Z,15.40
2023-05-15T05:40:05.909Z,14.10
2023-05-15T05:42:33.972Z,16.02
2023-05-15T05:45:01.777Z,16.13
2023-05-15T05:47:29.720Z,15.05
2023-05-15T05:49:57.853Z,16.25
2023-05-15T05:52:25.592Z,16.85
2023-05-15T05:54:53.301Z,16.00
2023-05-15T05:57:22.467Z,15.45
2023-05-15T05:59:50.833Z,17.08
2023-05-15T06:02:18.840Z,16.80
2023-05-15T06:04:47.310Z,16.38
2023-05-15T06:07:15.515Z,14.38
2023-05-15T06:09:45.854Z,15.20
2023-05-15T06:12:13.655Z,15.18
2023-05-15T06:14:42.832Z,15.75
2023-05-15T06:17:10.728Z,14.90
2023-05-15T06:19:38.605Z,15.98
2023-05-15T06:22:06.758Z,12.77
2023-05-15T06:24:34.709Z,10.55
2023-05-15T06:27:02.443Z,9.63
2023-05-15T06:29:30.269Z,11.13
2023-05-15T06:31:59.628Z,10.95
2023-05-15T06:34:27.427Z,10.93
2023-05-15T06:36:55.463Z,10.30
2023-05-15T06:39:23.277Z,10.60
2023-05-15T06:41:51.027Z,9.75
2023-05-15T06:44:20.062Z,10.57
2023-05-15T06:46:48.124Z,9.57
2023-05-15T06:49:17.329Z,10.93
2023-05-15T06:51:45.104Z,9.88
2023-05-15T06:54:12.856Z,10.02
2023-05-15T06:56:40.538Z,9.57
2023-05-15T06:59:08.311Z,10.02
2023-05-15T07:01:36.119Z,10.35
2023-05-15T07:04:04.015Z,10.20
2023-05-15T07:06:33.216Z,8.40
2023-05-15T07:09:01.366Z,7.88
2023-05-15T07:11:29.485Z,8.75
2023-05-15T07:13:57.696Z,9.35
2023-05-15T07:16:25.528Z,10.63
2023-05-15T07:18:53.390Z,10.27
2023-05-15T07:21:21.198Z,9.38
2023-05-15T07:23:50.559Z,9.77
2023-05-15T07:26:28.700Z,8.68
2023-05-15T07:29:02.369Z,7.50
2023-05-15T07:31:31.196Z,7.73
2023-05-15T07:33:59.011Z,7.95
2023-05-15T07:36:26.768Z,7.20
2023-05-15T07:38:56.096Z,7.80
2023-05-15T07:41:23.809Z,8.63
2023-05-15T07:43:51.527Z,8.68
2023-05-15T07:46:19.277Z,8.98
2023-05-15T07:48:47.181Z,7.72
2023-05-15T07:51:14.926Z,9.13
2023-05-15T07:53:42.808Z,8.60
2023-05-15T07:56:11.956Z,8.80
2023-05-15T07:58:40.273Z,10.10
2023-05-15T08:01:08.084Z,9.30
2023-05-15T08:03:35.988Z,9.02
2023-05-15T08:06:03.844Z,9.05
2023-05-15T08:08:31.905Z,8.48
2023-05-15T08:11:00.026Z,8.27
2023-05-15T08:13:29.525Z,8.82
2023-05-15T08:15:57.596Z,8.65
2023-05-15T08:18:25.423Z,7.82
2023-05-15T08:20:53.308Z,8.52
2023-05-15T08:23:21.077Z,8.68
2023-05-15T08:25:49.127Z,9.20
2023-05-15T08:28:16.930Z,9.50
2023-05-15T08:30:46.320Z,9.45
2023-05-15T08:33:14.086Z,9.23
2023-05-15T08:35:41.887Z,9.43
2023-05-15T08:38:09.656Z,8.20
2023-05-15T08:40:39.936Z,8.48
2023-05-15T08:43:15.255Z,7.47
2023-05-15T08:45:43.922Z,7.80
2023-05-15T08:48:17.127Z,8.25
2023-05-15T08:50:45.901Z,8.15
2023-05-15T08:53:14.642Z,8.50
2023-05-15T08:55:43.192Z,8.13
2023-05-15T08:58:11.343Z,8.25
2023-05-15T09:00:39.544Z,7.53
2023-05-15T09:03:08.036Z,7.90
2023-05-15T09:05:38.832Z,8.00
2023-05-15T09:08:09.286Z,8.15
2023-05-15T09:10:37.130Z,8.88
2023-05-15T09:13:07.549Z,7.85
2023-05-15T09:15:37.203Z,8.23
2023-05-15T09:18:07.848Z,7.28
2023-05-15T09:20:38.964Z,8.20
2023-05-15T09:23:22.533Z,7.78
2023-05-15T09:25:53.504Z,7.13
2023-05-15T09:28:30.151Z,7.70
2023-05-15T09:31:00.056Z,9.05
2023-05-15T09:33:32.763Z,8.20
2023-05-15T09:36:02.286Z,8.07
2023-05-15T09:38:30.929Z,6.93
2023-05-15T09:41:03.860Z,7.53
2023-05-15T09:43:35.562Z,7.22
2023-05-15T09:46:03.675Z,6.38
2023-05-15T09:48:32.440Z,7.07
2023-05-15T09:51:02.173Z,6.50
2023-05-15T09:53:31.825Z,7.28
2023-05-15T09:55:59.873Z,6.82
2023-05-15T09:58:27.794Z,6.45
2023-05-15T10:00:55.693Z,6.63
2023-05-15T10:03:24.144Z,7.03
2023-05-15T10:06:00.075Z,7.40
2023-05-15T10:08:29.406Z,7.07
2023-05-15T10:11:00.971Z,7.00
2023-05-15T10:13:31.716Z,6.55
2023-05-15T10:16:02.183Z,6.47
2023-05-15T10:18:34.856Z,6.90
2023-05-15T10:21:04.619Z,7.07
2023-05-15T10:23:36.723Z,6.65
2023-05-15T10:26:09.958Z,6.70
2023-05-15T10:28:38.928Z,6.75
2023-05-15T10:31:08.200Z,6.72
2023-05-15T10:33:38.067Z,6.65
2023-05-15T10:36:07.367Z,8.32
2023-05-15T10:38:37.879Z,7.18
2023-05-15T10:41:17.331Z,7.70
2023-05-15T10:43:47.156Z,6.43
2023-05-15T10:46:16.082Z,6.93
2023-05-15T10:48:44.512Z,7.70
2023-05-15T10:51:17.340Z,7.13
2023-05-15T10:53:47.312Z,6.55
2023-05-15T10:56:16.565Z,7.45
2023-05-15T10:58:49.061Z,7.50
2023-05-15T11:01:27.992Z,7.32
2023-05-15T11:04:13.213Z,6.35
2023-05-15T11:06:43.762Z,7.70
2023-05-15T11:09:38.212Z,7.68
2023-05-15T11:12:07.904Z,6.72
2023-05-15T11:14:38.070Z,6.88
2023-05-15T11:17:08.063Z,8.45
2023-05-15T11:19:42.138Z,7.97
2023-05-15T11:22:21.304Z,7.75
2023-05-15T11:24:53.179Z,8.48
2023-05-15T11:27:23.251Z,7.05
2023-05-15T11:30:20.555Z,8.07
2023-05-15T11:32:55.555Z,8.23
2023-05-15T11:35:25.007Z,6.95
2023-05-15T11:37:55.544Z,7.38
2023-05-15T11:40:26.893Z,7.32
2023-05-15T11:43:07.000Z,7.97
2023-05-15T11:45:36.635Z,7.60
2023-05-15T11:48:06.579Z,7.15
2023-05-15T11:50:36.421Z,7.43
2023-05-15T11:53:06.330Z,7.85
2023-05-15T11:55:37.405Z,6.53
2023-05-15T11:58:06.166Z,7.18
2023-05-15T12:00:34.137Z,7.93
2023-05-15T12:03:04.654Z,8.75
2023-05-15T12:05:32.767Z,7.70
2023-05-15T12:08:02.163Z,8.60
2023-05-15T12:10:31.336Z,8.65
2023-05-15T12:13:00.939Z,8.52
2023-05-15T12:15:28.799Z,9.63
2023-05-15T12:17:56.775Z,8.82
2023-05-15T12:20:24.981Z,9.20
2023-05-15T12:22:53.074Z,9.25
2023-05-15T12:25:21.074Z,8.02
2023-05-15T12:27:48.976Z,8.65
2023-05-15T12:30:18.386Z,7.95
2023-05-15T12:32:46.571Z,8.38
2023-05-15T12:35:14.550Z,8.48
2023-05-15T12:37:43.037Z,8.38
2023-05-15T12:40:12.026Z,8.95
2023-05-15T12:42:41.286Z,8.68
2023-05-15T12:45:20.675Z,8.88
2023-05-15T12:47:50.221Z,10.40
2023-05-15T12:50:19.477Z,8.00
2023-05-15T12:52:48.460Z,8.55
2023-05-15T12:55:19.628Z,8.90
2023-05-15T12:57:47.563Z,7.72
2023-05-15T13:00:21.496Z,6.97
2023-05-15T13:02:51.515Z,6.28
2023-05-15T13:05:19.673Z,6.60
2023-05-15T13:07:48.665Z,6.15
2023-05-15T13:10:16.646Z,5.57
2023-05-15T13:12:46.435Z,5.53
2023-05-15T13:15:29.603Z,5.35
2023-05-15T13:18:01.022Z,5.05
2023-05-15T13:20:29.698Z,5.85
2023-05-15T13:22:57.869Z,5.85
2023-05-15T13:25:25.769Z,6.43
2023-05-15T13:27:53.926Z,5.55
2023-05-15T13:30:22.002Z,5.40
2023-05-15T13:32:53.267Z,6.25
2023-05-15T13:35:22.837Z,5.80
2023-05-15T13:37:51.174Z,6.32
2023-05-15T13:40:19.024Z,7.22
2023-05-15T13:42:46.784Z,6.85
2023-05-15T13:45:19.055Z,7.78
2023-05-15T13:47:46.999Z,6.72
2023-05-15T13:50:17.243Z,6.55
2023-05-15T13:52:46.735Z,6.32
2023-05-15T13:55:14.888Z,6.25
2023-05-15T13:57:44.246Z,5.82
2023-05-15T14:00:14.438Z,6.00
2023-05-15T14:03:01.268Z,6.10
2023-05-15T14:05:31.149Z,5.85
2023-05-15T14:07:58.914Z,5.68
2023-05-15T14:10:27.065Z,5.63
2023-05-15T14:12:55.276Z,5.55
2023-05-15T14:15:23.338Z,4.32
2023-05-15T14:17:51.124Z,4.68
2023-05-15T14:20:19.086Z,5.05
2023-05-15T14:22:48.446Z,4.45
2023-05-15T14:25:16.346Z,4.78
2023-05-15T14:27:44.203Z,4.78
2023-05-15T14:30:12.484Z,5.07
2023-05-15T14:32:40.284Z,6.05
2023-05-15T14:35:08.735Z,4.80
2023-05-15T14:37:37.667Z,4.90
2023-05-15T14:40:09.000Z,5.18
2023-05-15T14:42:36.965Z,4.78
2023-05-15T14:45:05.303Z,4.70
2023-05-15T14:47:33.836Z,4.70
2023-05-15T14:50:01.969Z,4.32
2023-05-15T14:52:29.929Z,3.55
2023-05-15T14:55:08.518Z,3.70
2023-05-15T14:57:38.964Z,3.50
2023-05-15T15:00:08.347Z,4.00
2023-05-15T15:02:36.227Z,3.95
2023-05-15T15:05:04.750Z,4.97
2023-05-15T15:07:52.952Z,4.82
2023-05-15T15:10:20.694Z,5.07
2023-05-15T15:12:52.406Z,5.18
2023-05-15T15:15:20.673Z,4.82
2023-05-15T15:17:48.473Z,5.75
2023-05-15T15:20:18.302Z,4.93
2023-05-15T15:22:46.277Z,5.07
2023-05-15T15:25:14.578Z,4.65
2023-05-15T15:27:42.765Z,4.68
2023-05-15T15:30:13.092Z,4.93
2023-05-15T15:32:41.666Z,5.72
2023-05-15T15:35:09.996Z,6.07
2023-05-15T15:37:38.990Z,5.95
2023-05-15T15:40:08.660Z,5.85
2023-05-15T15:42:36.542Z,5.93
2023-05-15T15:45:05.788Z,6.78
2023-05-15T15:47:34.916Z,5.90
2023-05-15T15:50:02.883Z,5.85
2023-05-15T15:52:30.919Z,6.63
2023-05-15T15:54:58.658Z,7.65
2023-05-15T15:57:26.480Z,6.35
2023-05-15T15:59:54.270Z,6.80
2023-05-15T16:02:22.185Z,6.35
2023-05-15T16:04:51.577Z,6.18
2023-05-15T16:07:38.030Z,7.10
2023-05-15T16:10:12.424Z,6.35
2023-05-15T16:12:42.437Z,7.05
2023-05-15T16:17:41.916Z,7.22
2023-05-15T16:20:11.783Z,6.93
2023-05-15T16:22:41.544Z,7.28
2023-05-15T16:25:10.128Z,6.38
2023-05-15T16:27:38.128Z,7.78
2023-05-15T16:30:06.914Z,7.10
2023-05-15T16:32:35.555Z,7.20
2023-05-15T16:35:03.590Z,7.32
2023-05-15T16:37:32.831Z,7.53
2023-05-15T16:40:00.740Z,7.28
2023-05-15T16:42:28.818Z,7.05
2023-05-15T16:44:56.673Z,7.00
2023-05-15T16:47:24.562Z,6.13
2023-05-15T16:49:52.347Z,6.20
2023-05-15T16:52:20.079Z,5.90
2023-05-15T16:54:49.274Z,4.75
2023-05-15T16:57:17.726Z,5.10
2023-05-15T16:59:46.024Z,4.93
2023-05-15T17:02:15.355Z,5.35
2023-05-15T17:04:43.220Z,4.57
2023-05-15T17:07:10.957Z,4.35
2023-05-15T17:09:40.156Z,4.65
2023-05-15T17:12:09.730Z,4.90
2023-05-15T17:14:37.599Z,4.63
2023-05-15T17:17:05.832Z,3.97
2023-05-15T17:19:34.568Z,4.20
2023-05-15T17:22:02.378Z,4.45
2023-05-15T17:24:38.764Z,4.60
2023-05-15T17:27:20.411Z,5.32
2023-05-15T17:29:48.540Z,5.00
2023-05-15T17:32:17.468Z,4.97
2023-05-15T17:34:45.755Z,4.32
2023-05-15T17:37:13.994Z,4.80
2023-05-15T17:39:41.880Z,4.65
2023-05-15T17:42:09.859Z,4.75
2023-05-15T17:44:39.325Z,4.50
2023-05-15T17:47:08.567Z,4.70
2023-05-15T17:49:36.559Z,5.05
2023-05-15T17:52:04.600Z,5.18
2023-05-15T17:54:32.509Z,4.45
2023-05-15T17:57:00.293Z,4.80
2023-05-15T17:59:28.481Z,4.90
2023-05-15T18:01:58.082Z,4.70
2023-05-15T18:04:26.087Z,4.07
2023-05-15T18:06:53.998Z,3.65
2023-05-15T18:09:24.004Z,3.20
2023-05-15T18:11:52.593Z,3.08
2023-05-15T18:14:20.389Z,2.83
2023-05-15T18:16:48.197Z,2.67
2023-05-15T18:19:18.072Z,3.00
2023-05-15T18:21:46.003Z,2.85
2023-05-15T18:24:13.717Z,2.90
2023-05-15T18:26:41.463Z,2.80
2023-05-15T18:29:09.261Z,3.05
2023-05-15T18:31:37.323Z,2.63
2023-05-15T18:34:05.233Z,3.05
2023-05-15T18:36:34.639Z,2.78
2023-05-15T18:39:02.600Z,2.50
2023-05-15T18:41:30.725Z,3.08
2023-05-15T18:43:58.572Z,2.10
2023-05-15T18:46:28.160Z,2.08
2023-05-15T18:48:56.683Z,1.92
2023-05-15T18:51:24.668Z,1.80
2023-05-15T18:53:53.748Z,1.83
2023-05-15T18:56:22.036Z,1.40
2023-05-15T18:58:49.885Z,1.65
2023-05-15T19:01:18.095Z,1.65
2023-05-15T19:03:46.059Z,1.60
2023-05-15T19:06:19.616Z,1.15
2023-05-15T19:11:17.672Z,1.45
2023-05-15T19:13:45.466Z,1.20
2023-05-15T19:16:13.433Z,1.40
2023-05-15T19:18:41.388Z,1.15
2023-05-15T19:21:09.306Z,1.35
2023-05-15T19:23:37.159Z,1.58
2023-05-15T19:26:05.361Z,1.65
2023-05-15T19:28:34.860Z,1.13
2023-05-15T19:31:04.261Z,1.58
2023-05-15T19:33:32.122Z,1.25
2023-05-15T19:35:59.911Z,1.80
2023-05-15T19:38:27.978Z,1.80
2023-05-15T19:40:55.723Z,1.58
2023-05-15T19:43:24.461Z,1.50
2023-05-15T19:45:53.597Z,1.80
2023-05-15T19:48:21.462Z,1.75
2023-05-15T19:50:49.324Z,2.03
2023-05-15T19:53:17.159Z,2.40
2023-05-15T19:55:50.738Z,1.80
2023-05-15T19:58:21.594Z,1.58
2023-05-15T20:00:52.595Z,1.70
2023-05-15T20:03:22.367Z,1.42
2023-05-15T20:05:50.453Z,1.40
2023-05-15T20:08:18.175Z,1.30
2023-05-15T20:10:51.699Z,1.60
2023-05-15T20:15:47.913Z,1.73
2023-05-15T20:18:16.443Z,1.77
2023-05-15T20:20:46.459Z,2.00
2023-05-15T20:23:14.363Z,1.48
2023-05-15T20:25:42.330Z,1.88
2023-05-15T20:28:10.224Z,2.20
2023-05-15T20:30:38.116Z,1.80
2023-05-15T20:33:06.194Z,1.50
2023-05-15T20:35:34.357Z,1.80
2023-05-15T20:38:04.320Z,1.52
2023-05-15T20:40:32.117Z,1.48
2023-05-15T20:43:01.119Z,2.03
2023-05-15T20:45:29.831Z,1.85
2023-05-15T20:47:58.161Z,2.13
2023-05-15T20:50:26.633Z,2.28
2023-05-15T20:52:55.438Z,2.63
2023-05-15T20:55:24.689Z,2.55
2023-05-15T20:57:52.519Z,2.35
2023-05-15T21:00:20.428Z,2.45
2023-05-15T21:02:48.328Z,2.70
2023-05-15T21:05:16.576Z,2.03
2023-05-15T21:07:44.445Z,2.50
2023-05-15T21:10:12.661Z,2.67
2023-05-15T21:12:42.214Z,2.13
2023-05-15T21:15:11.268Z,2.42
2023-05-15T21:17:39.778Z,2.22
2023-05-15T21:20:09.137Z,2.90
2023-05-15T21:22:37.281Z,2.42
2023-05-15T21:25:05.833Z,2.78
2023-05-15T21:27:33.604Z,3.22
2023-05-15T21:30:03.016Z,2.15
2023-05-15T21:32:30.830Z,2.83
2023-05-15T21:34:58.746Z,2.90
2023-05-15T21:37:27.365Z,2.90
2023-05-15T21:39:55.251Z,2.22
2023-05-15T21:42:23.470Z,2.83
2023-05-15T21:44:51.277Z,3.50
2023-05-15T21:47:20.384Z,3.08
2023-05-15T21:49:48.545Z,2.80
2023-05-15T21:52:16.500Z,3.78
2023-05-15T21:54:44.661Z,2.78
2023-05-15T21:57:12.390Z,2.53
2023-05-15T21:59:40.167Z,2.58
2023-05-15T22:02:08.365Z,2.63
2023-05-15T22:04:37.726Z,3.58
2023-05-15T22:07:05.837Z,2.05
2023-05-15T22:09:33.786Z,2.53
2023-05-15T22:12:01.547Z,2.58
2023-05-15T22:14:29.639Z,2.67
2023-05-15T22:16:57.836Z,3.22
2023-05-15T22:19:33.023Z,3.33
2023-05-15T22:22:03.395Z,3.17
2023-05-15T22:24:31.409Z,3.00
2023-05-15T22:27:00.006Z,3.15
2023-05-15T22:29:28.267Z,3.58
2023-05-15T22:31:56.179Z,3.25
2023-05-15T22:34:25.326Z,2.85
2023-05-15T22:39:23.350Z,3.17
2023-05-15T22:41:51.503Z,3.22
2023-05-15T22:44:19.226Z,3.40
2023-05-15T22:46:47.037Z,3.28
2023-05-15T22:49:19.217Z,2.80
2023-05-15T22:51:47.125Z,2.95
2023-05-15T22:54:15.165Z,2.88
2023-05-15T22:56:44.351Z,3.70
2023-05-15T22:59:12.093Z,2.30
2023-05-15T23:01:40.080Z,3.80
2023-05-15T23:04:08.157Z,2.88
2023-05-15T23:06:36.035Z,3.30
2023-05-15T23:09:04.695Z,2.92
2023-05-15T23:11:32.768Z,2.78
2023-05-15T23:14:02.972Z,4.05
2023-05-15T23:16:30.910Z,2.67
2023-05-15T23:18:58.938Z,2.67
2023-05-15T23:21:27.204Z,3.17
2023-05-15T23:23:55.431Z,3.40
2023-05-15T23:26:23.397Z,3.53
2023-05-15T23:28:51.410Z,2.40
2023-05-15T23:31:20.655Z,2.30
2023-05-15T23:33:48.589Z,2.90
2023-05-15T23:36:16.426Z,2.85
2023-05-15T23:38:44.393Z,2.75
2023-05-15T23:41:12.194Z,2.70
2023-05-15T23:43:39.984Z,2.67
2023-05-15T23:46:07.763Z,2.78
2023-05-15T23:48:36.956Z,2.67
2023-05-15T23:51:04.844Z,2.25
2023-05-15T23:53:32.922Z,2.38
2023-05-15T23:56:00.833Z,3.10
2023-05-15T23:58:29.220Z,2.33
